createdAt,value
2023-04-15T00:01:12.173Z,95605.65
2023-04-15T00:03:40.746Z,95606.02
2023-04-15T00:06:09.960Z,95608.81
2023-04-15T00:08:38.048Z,95613.69
2023-04-15T00:11:06.425Z,95617.34
2023-04-15T00:13:35.104Z,95612.14
2023-04-15T00:16:03.079Z,95611.08
2023-04-15T00:18:31.881Z,95610.54
2023-04-15T00:21:00.254Z,95610.59
2023-04-15T00:23:28.513Z,95607.09
2023-04-15T00:25:56.786Z,95607.09
2023-04-15T00:28:24.838Z,95611.42
2023-04-15T00:30:52.858Z,95609.73
2023-04-15T00:33:21.005Z,95608.89
2023-04-15T00:35:49.175Z,95611.02
2023-04-15T00:38:17.960Z,95607.13
2023-04-15T00:40:46.057Z,95612.83
2023-04-15T00:43:14.008Z,95618.68
2023-04-15T00:45:42.102Z,95620.13
2023-04-15T00:48:11.690Z,95618.45
2023-04-15T00:50:39.865Z,95615.17
2023-04-15T00:53:07.938Z,95614.63
2023-04-15T00:55:36.526Z,95614.38
2023-04-15T00:58:04.802Z,95614.98
2023-04-15T01:00:32.766Z,95610.24
2023-04-15T01:03:01.930Z,95611.23
2023-04-15T01:05:30.765Z,95607.70
2023-04-15T01:07:58.709Z,95607.02
2023-04-15T01:10:27.620Z,95606.78
2023-04-15T01:12:55.888Z,95605.09
2023-04-15T01:15:24.174Z,95604.02
2023-04-15T01:17:52.286Z,95600.42
2023-04-15T01:20:20.820Z,95602.54
2023-04-15T01:22:49.190Z,95600.94
2023-04-15T01:25:26.219Z,95599.70
2023-04-15T01:27:54.352Z,95593.67
2023-04-15T01:30:22.641Z,95593.05
2023-04-15T01:32:51.963Z,95593.66
2023-04-15T01:35:21.673Z,95589.61
2023-04-15T01:37:49.808Z,95594.18
2023-04-15T01:40:18.702Z,95597.98
2023-04-15T01:42:46.994Z,95594.31
2023-04-15T01:45:17.720Z,95591.95
2023-04-15T01:47:45.938Z,95591.33
2023-04-15T01:50:14.035Z,95586.13
2023-04-15T01:52:42.563Z,95590.48
2023-04-15T01:55:11.309Z,95596.64
2023-04-15T01:57:40.094Z,95596.79
2023-04-15T02:00:08.383Z,95598.30
2023-04-15T02:02:43.947Z,95600.71
2023-04-15T02:05:12.130Z,95604.14
2023-04-15T02:07:40.058Z,95602.08
2023-04-15T02:10:11.837Z,95599.33
2023-04-15T02:12:40.842Z,95598.26
2023-04-15T02:15:10.460Z,95606.85
2023-04-15T02:17:38.750Z,95606.63
2023-04-15T02:20:07.203Z,95606.55
2023-04-15T02:22:35.393Z,95607.06
2023-04-15T02:25:03.667Z,95605.21
2023-04-15T02:27:33.577Z,95602.30
2023-04-15T02:30:01.925Z,95600.92
2023-04-15T02:32:30.264Z,95601.85
2023-04-15T02:35:02.916Z,95598.48
2023-04-15T02:37:32.011Z,95598.55
2023-04-15T02:40:01.691Z,95599.30
2023-04-15T02:42:30.604Z,95602.80
2023-04-15T02:45:00.529Z,95604.00
2023-04-15T02:47:31.683Z,95604.63
2023-04-15T02:50:01.175Z,95600.11
2023-04-15T02:52:30.269Z,95602.38
2023-04-15T02:55:00.907Z,95596.67
2023-04-15T02:57:31.847Z,95593.91
2023-04-15T03:00:05.071Z,95584.30
2023-04-15T03:02:35.801Z,95585.52
2023-04-15T03:05:06.105Z,95590.77
2023-04-15T03:07:34.267Z,95584.59
2023-04-15T03:10:03.039Z,95581.72
2023-04-15T03:12:31.114Z,95586.66
2023-04-15T03:15:00.525Z,95591.95
2023-04-15T03:17:34.033Z,95593.06
2023-04-15T03:20:05.077Z,95597.08
2023-04-15T03:22:33.559Z,95596.06
2023-04-15T03:25:01.920Z,95600.09
2023-04-15T03:27:30.096Z,95604.80
2023-04-15T03:30:00.740Z,95607.54
2023-04-15T03:32:32.635Z,95608.42
2023-04-15T03:35:00.989Z,95607.34
2023-04-15T03:37:29.060Z,95609.16
2023-04-15T03:39:57.330Z,95604.23
2023-04-15T03:42:25.804Z,95609.73
2023-04-15T03:44:53.850Z,95612.63
2023-04-15T03:47:21.977Z,95616.82
2023-04-15T03:49:50.121Z,95619.62
2023-04-15T03:52:18.312Z,95621.52
2023-04-15T03:54:46.500Z,95628.14
2023-04-15T03:57:14.430Z,95627.20
2023-04-15T03:59:42.527Z,95630.92
2023-04-15T04:02:10.742Z,95633.73
2023-04-15T04:04:38.833Z,95637.33
2023-04-15T04:07:07.129Z,95633.79
2023-04-15T04:09:35.213Z,95635.98
2023-04-15T04:12:04.396Z,95637.05
2023-04-15T04:14:32.367Z,95642.98
2023-04-15T04:17:00.550Z,95638.64
2023-04-15T04:19:30.199Z,95641.98
2023-04-15T04:21:58.530Z,95644.10
2023-04-15T04:24:26.596Z,95647.84
2023-04-15T04:26:54.780Z,95646.77
2023-04-15T04:29:22.852Z,95647.13
2023-04-15T04:31:51.103Z,95647.59
2023-04-15T04:34:19.506Z,95649.02
2023-04-15T04:36:47.592Z,95653.58
2023-04-15T04:39:15.762Z,95655.27
2023-04-15T04:41:44.945Z,95659.90
2023-04-15T04:44:13.026Z,95658.45
2023-04-15T04:46:41.396Z,95660.51
2023-04-15T04:49:09.341Z,95665.36
2023-04-15T04:51:37.450Z,95668.33
2023-04-15T04:54:05.511Z,95670.54
2023-04-15T04:56:34.822Z,95668.57
2023-04-15T04:59:03.185Z,95669.85
2023-04-15T05:01:31.480Z,95666.88
2023-04-15T05:04:00.431Z,95664.58
2023-04-15T05:06:30.781Z,95666.86
2023-04-15T05:08:59.056Z,95671.27
2023-04-15T05:11:27.081Z,95671.81
2023-04-15T05:13:55.199Z,95671.04
2023-04-15T05:16:23.419Z,95666.98
2023-04-15T05:18:52.072Z,95670.27
2023-04-15T05:21:20.831Z,95668.30
2023-04-15T05:23:48.822Z,95669.13
2023-04-15T05:26:17.930Z,95674.25
2023-04-15T05:28:46.400Z,95678.90
2023-04-15T05:31:14.402Z,95684.32
2023-04-15T05:33:42.646Z,95686.77
2023-04-15T05:36:10.632Z,95690.52
2023-04-15T05:38:38.901Z,95695.73
2023-04-15T05:41:06.962Z,95691.70
2023-04-15T05:43:35.048Z,95694.16
2023-04-15T05:46:03.018Z,95691.59
2023-04-15T05:48:31.273Z,95697.33
2023-04-15T05:50:59.482Z,95695.44
2023-04-15T05:53:27.531Z,95698.52
2023-04-15T05:55:56.026Z,95701.05
2023-04-15T05:58:24.296Z,95710.06
2023-04-15T06:00:52.257Z,95715.95
2023-04-15T06:03:20.541Z,95719.88
2023-04-15T06:05:49.294Z,95722.39
2023-04-15T06:08:17.398Z,95727.45
2023-04-15T06:10:46.283Z,95720.21
2023-04-15T06:13:14.202Z,95716.26
2023-04-15T06:15:42.397Z,95705.36
2023-04-15T06:18:11.938Z,95700.19
2023-04-15T06:20:40.326Z,95706.45
2023-04-15T06:23:08.383Z,95712.45
2023-04-15T06:25:36.572Z,95723.59
2023-04-15T06:28:04.846Z,95723.62
2023-04-15T06:30:33.005Z,95729.29
2023-04-15T06:33:01.007Z,95735.64
2023-04-15T06:35:29.052Z,95734.23
2023-04-15T06:37:57.627Z,95733.66
2023-04-15T06:40:25.707Z,95731.94
2023-04-15T06:42:53.679Z,95733.42
2023-04-15T06:45:21.658Z,95734.35
2023-04-15T06:47:49.758Z,95732.92
2023-04-15T06:50:18.482Z,95735.31
2023-04-15T06:52:46.659Z,95737.92
2023-04-15T06:55:15.161Z,95741.49
2023-04-15T06:57:43.440Z,95745.80
2023-04-15T07:00:12.325Z,95756.89
2023-04-15T07:02:40.702Z,95764.98
2023-04-15T07:05:09.195Z,95764.18
2023-04-15T07:07:37.566Z,95766.94
2023-04-15T07:10:06.390Z,95769.06
2023-04-15T07:12:35.443Z,95764.56
2023-04-15T07:15:04.345Z,95756.11
2023-04-15T07:17:32.656Z,95753.46
2023-04-15T07:20:00.791Z,95760.28
2023-04-15T07:22:28.880Z,95765.59
2023-04-15T07:24:56.895Z,95759.77
2023-04-15T07:27:24.800Z,95757.86
2023-04-15T07:29:53.369Z,95758.81
2023-04-15T07:32:21.491Z,95757.53
2023-04-15T07:34:49.484Z,95760.73
2023-04-15T07:37:17.806Z,95758.76
2023-04-15T07:39:45.886Z,95760.67
2023-04-15T07:42:13.823Z,95757.20
2023-04-15T07:44:42.150Z,95758.63
2023-04-15T07:47:10.918Z,95761.38
2023-04-15T07:49:39.089Z,95760.64
2023-04-15T07:52:07.371Z,95762.20
2023-04-15T07:54:35.616Z,95761.70
2023-04-15T07:57:03.720Z,95761.81
2023-04-15T07:59:33.652Z,95763.42
2023-04-15T08:02:01.887Z,95764.22
2023-04-15T08:04:30.536Z,95762.47
2023-04-15T08:06:59.284Z,95760.50
2023-04-15T08:09:27.458Z,95762.73
2023-04-15T08:14:29.635Z,95764.74
2023-04-15T08:22:03.998Z,95758.60
2023-04-15T08:24:32.063Z,95757.64
2023-04-15T08:27:01.671Z,95756.41
2023-04-15T08:29:30.873Z,95758.95
2023-04-15T08:32:00.828Z,95758.35
2023-04-15T08:34:28.968Z,95757.30
2023-04-15T08:44:37.136Z,95760.89
2023-04-15T08:47:07.867Z,95763.34
2023-04-15T08:49:39.386Z,95764.42
2023-04-15T08:52:07.682Z,95764.89
2023-04-15T08:54:36.751Z,95763.92
2023-04-15T08:57:04.851Z,95760.89
2023-04-15T09:07:12.238Z,95762.22
2023-04-15T09:09:42.221Z,95755.54
2023-04-15T09:12:11.814Z,95756.17
2023-04-15T09:14:40.821Z,95759.24
2023-04-15T09:17:10.626Z,95759.95
2023-04-15T09:19:38.902Z,95760.73
2023-04-15T09:22:07.053Z,95757.71
2023-04-15T09:24:39.416Z,95754.08
2023-04-15T09:27:07.711Z,95749.07
2023-04-15T09:29:35.783Z,95743.46
2023-04-15T09:32:11.523Z,95737.61
2023-04-15T09:34:39.534Z,95735.58
2023-04-15T09:37:08.164Z,95734.45
2023-04-15T09:39:50.187Z,95732.41
2023-04-15T09:42:24.564Z,95732.90
2023-04-15T09:44:53.245Z,95736.14
2023-04-15T09:47:31.711Z,95737.91
2023-04-15T09:50:00.526Z,95733.59
2023-04-15T09:52:29.012Z,95729.16
2023-04-15T09:54:58.727Z,95730.02
2023-04-15T09:57:36.704Z,95741.51
2023-04-15T10:00:08.340Z,95743.14
2023-04-15T10:02:38.541Z,95743.78
2023-04-15T10:05:07.380Z,95743.51
2023-04-15T10:07:35.446Z,95739.01
2023-04-15T10:10:04.642Z,95736.29
2023-04-15T10:12:33.741Z,95737.98
2023-04-15T10:15:07.352Z,95738.23
2023-04-15T10:17:35.744Z,95734.88
2023-04-15T10:20:05.368Z,95730.46
2023-04-15T10:22:33.459Z,95729.88
2023-04-15T10:25:02.440Z,95727.52
2023-04-15T10:27:30.873Z,95723.17
2023-04-15T10:29:58.947Z,95725.05
2023-04-15T10:32:27.408Z,95722.52
2023-04-15T10:34:55.604Z,95717.11
2023-04-15T10:37:34.014Z,95712.77
2023-04-15T10:40:03.213Z,95708.17
2023-04-15T10:42:34.785Z,95710.04
2023-04-15T10:45:02.728Z,95708.82
2023-04-15T10:55:18.167Z,95706.72
2023-04-15T10:57:46.228Z,95707.11
2023-04-15T11:00:15.974Z,95708.04
2023-04-15T11:02:53.624Z,95706.43
2023-04-15T11:05:41.573Z,95706.30
2023-04-15T11:08:10.472Z,95702.41
2023-04-15T11:10:38.582Z,95704.71
2023-04-15T11:21:01.852Z,95711.63
2023-04-15T11:23:38.427Z,95710.02
2023-04-15T11:26:10.016Z,95713.09
2023-04-15T11:28:44.946Z,95712.55
2023-04-15T11:31:14.628Z,95717.70
2023-04-15T11:33:59.783Z,95716.93
2023-04-15T11:36:29.427Z,95718.53
2023-04-15T11:38:58.311Z,95717.08
2023-04-15T11:51:39.249Z,95715.63
2023-04-15T11:54:07.420Z,95715.55
2023-04-15T12:01:43.189Z,95714.48
2023-04-15T12:04:18.035Z,95710.65
2023-04-15T12:06:46.621Z,95708.11
2023-04-15T12:09:17.571Z,95708.20
2023-04-15T12:11:46.132Z,95709.19
2023-04-15T12:14:24.635Z,95708.80
2023-04-15T12:16:58.349Z,95713.80
2023-04-15T12:24:57.274Z,95710.95
2023-04-15T12:30:06.062Z,95709.89
2023-04-15T12:32:37.356Z,95707.04
2023-04-15T12:35:06.272Z,95702.38
2023-04-15T12:40:08.801Z,95703.30
2023-04-15T12:42:37.041Z,95702.60
2023-04-15T12:45:05.662Z,95701.61
2023-04-15T12:47:33.714Z,95703.83
2023-04-15T12:50:01.774Z,95707.20
2023-04-15T12:52:29.793Z,95711.65
2023-04-15T12:57:30.789Z,95716.92
2023-04-15T12:59:58.870Z,95706.83
2023-04-15T13:02:28.869Z,95705.05
2023-04-15T13:04:57.070Z,95707.52
2023-04-15T13:07:25.230Z,95704.44
2023-04-15T13:12:27.311Z,95706.44
2023-04-15T13:14:55.454Z,95711.87
2023-04-15T13:17:23.566Z,95719.54
2023-04-15T13:19:52.248Z,95729.02
2023-04-15T13:22:20.613Z,95724.20
2023-04-15T13:24:48.605Z,95729.63
2023-04-15T13:27:16.759Z,95736.91
2023-04-15T13:29:44.837Z,95743.56
2023-04-15T13:34:45.951Z,95749.77
2023-04-15T13:37:13.972Z,95754.60
2023-04-15T13:39:42.044Z,95754.29
2023-04-15T13:42:10.103Z,95756.20
2023-04-15T13:44:38.769Z,95763.25
2023-04-15T13:47:07.074Z,95769.53
2023-04-15T13:49:35.149Z,95782.48
2023-04-15T13:52:03.219Z,95784.39
2023-04-15T13:54:37.754Z,95786.69
2023-04-15T13:59:39.612Z,95790.05
2023-04-15T14:02:07.905Z,95794.95
2023-04-15T14:04:35.994Z,95788.29
2023-04-15T14:07:05.267Z,95786.07
2023-04-15T14:12:02.638Z,95791.11
2023-04-15T14:14:30.614Z,95792.64
2023-04-15T14:16:58.915Z,95799.38
2023-04-15T14:19:27.160Z,95804.20
2023-04-15T14:21:55.334Z,95810.56
2023-04-15T14:24:23.205Z,95810.25
2023-04-15T14:26:51.373Z,95815.06
2023-04-15T14:29:19.345Z,95813.08
2023-04-15T14:32:04.303Z,95814.23
2023-04-15T14:34:36.987Z,95815.22
2023-04-15T14:37:05.363Z,95822.57
2023-04-15T14:39:33.442Z,95827.92
2023-04-15T14:42:02.023Z,95829.76
2023-04-15T14:47:02.776Z,95829.91
2023-04-15T14:49:30.843Z,95825.83
2023-04-15T14:51:58.818Z,95828.95
2023-04-15T14:54:27.110Z,95832.53
2023-04-15T14:56:55.161Z,95832.09
2023-04-15T14:59:23.543Z,95834.52
2023-04-15T15:01:51.776Z,95840.64
2023-04-15T15:04:20.179Z,95846.01
2023-04-15T15:06:49.227Z,95851.98
2023-04-15T15:09:17.482Z,95857.17
2023-04-15T15:11:45.488Z,95868.35
2023-04-15T15:14:14.851Z,95884.11
2023-04-15T15:16:42.928Z,95912.89
2023-04-15T15:19:11.204Z,95938.61
2023-04-15T15:21:39.464Z,95926.81
2023-04-15T15:24:07.348Z,95945.10
2023-04-15T15:26:35.409Z,95960.56
2023-04-15T15:29:03.922Z,95962.39
2023-04-15T15:31:32.190Z,95971.56
2023-04-15T15:34:00.435Z,95972.02
2023-04-15T15:36:28.713Z,95966.02
2023-04-15T15:38:56.608Z,95958.75
2023-04-15T15:41:26.014Z,95954.67
2023-04-15T15:43:54.365Z,95947.78
2023-04-15T15:46:24.473Z,95948.92
2023-04-15T15:48:52.676Z,95943.88
2023-04-15T15:51:21.153Z,95927.66
2023-04-15T15:53:49.339Z,95903.44
2023-04-15T15:56:17.291Z,95903.05
2023-04-15T15:58:45.380Z,95908.05
2023-04-15T16:01:13.612Z,95901.16
2023-04-15T16:03:41.961Z,95894.96
2023-04-15T16:08:42.886Z,95887.69
2023-04-15T16:11:10.940Z,95885.16
2023-04-15T16:13:38.913Z,95885.84
2023-04-15T16:16:07.560Z,95883.77
2023-04-15T16:18:35.773Z,95879.48
2023-04-15T16:23:37.273Z,95881.25
2023-04-15T16:26:05.418Z,95878.64
2023-04-15T16:28:33.421Z,95878.64
2023-04-15T16:31:01.558Z,95884.14
2023-04-15T16:33:29.541Z,95883.44
2023-04-15T16:35:57.511Z,95872.91
2023-04-15T16:38:25.570Z,95890.70
2023-04-15T16:40:53.956Z,95892.08
2023-04-15T16:43:21.927Z,95890.00
2023-04-15T16:45:51.584Z,95888.77
2023-04-15T16:48:20.125Z,95885.47
2023-04-15T16:50:49.099Z,95886.38
2023-04-15T16:53:17.100Z,95889.59
2023-04-15T16:55:45.159Z,95890.66
2023-04-15T16:58:13.091Z,95897.46
2023-04-15T17:00:41.085Z,95903.19
2023-04-15T17:03:09.373Z,95907.15
2023-04-15T17:05:38.377Z,95911.20
2023-04-15T17:08:06.521Z,95919.06
2023-04-15T17:10:34.595Z,95923.25
2023-04-15T17:13:02.668Z,95929.36
2023-04-15T17:15:30.848Z,95936.09
2023-04-15T17:17:58.977Z,95939.20
2023-04-15T17:23:00.456Z,95951.18
2023-04-15T17:25:28.554Z,95954.38
2023-04-15T17:27:56.789Z,95959.17
2023-04-15T17:30:24.808Z,95961.38
2023-04-15T17:32:52.904Z,95967.94
2023-04-15T17:35:21.357Z,95974.49
2023-04-15T17:37:49.228Z,95975.71
2023-04-15T17:40:17.345Z,95984.33
2023-04-15T17:42:45.469Z,95989.74
2023-04-15T17:45:14.251Z,95992.86
2023-04-15T17:47:42.265Z,95999.72
2023-04-15T17:50:10.528Z,96006.19
2023-04-15T17:52:38.371Z,96009.77
2023-04-15T17:57:40.964Z,96017.91
2023-04-15T18:00:10.360Z,96024.85
2023-04-15T18:02:41.365Z,96036.38
2023-04-15T18:05:10.564Z,96040.88
2023-04-15T18:07:38.887Z,96044.09
2023-04-15T18:10:09.012Z,96046.84
2023-04-15T18:12:37.046Z,96048.88
2023-04-15T18:15:05.963Z,96057.13
2023-04-15T18:17:34.045Z,96064.70
2023-04-15T18:20:02.624Z,96065.59
2023-04-15T18:22:30.892Z,96068.48
2023-04-15T18:25:04.818Z,96071.91
2023-04-15T18:27:33.605Z,96078.92
2023-04-15T18:30:01.658Z,96084.41
2023-04-15T18:32:32.922Z,96090.83
2023-04-15T18:35:01.311Z,96101.21
2023-04-15T18:37:31.933Z,96103.27
2023-04-15T18:40:00.206Z,96107.98
2023-04-15T18:42:28.394Z,96112.49
2023-04-15T18:44:56.369Z,96114.55
2023-04-15T18:47:27.106Z,96114.84
2023-04-15T18:49:55.582Z,96117.73
2023-04-15T18:52:23.533Z,96117.88
2023-04-15T18:54:51.629Z,96117.55
2023-04-15T18:57:23.340Z,96118.21
2023-04-15T18:59:54.716Z,96119.03
2023-04-15T19:02:22.968Z,96122.15
2023-04-15T19:04:51.252Z,96121.77
2023-04-15T19:07:19.229Z,96120.21
2023-04-15T19:09:47.407Z,96117.91
2023-04-15T19:12:15.476Z,96121.88
2023-04-15T19:14:43.553Z,96122.24
2023-04-15T19:17:11.832Z,96125.05
2023-04-15T19:19:39.795Z,96120.60
2023-04-15T19:22:08.787Z,96122.27
2023-04-15T19:24:36.839Z,96123.56
2023-04-15T19:27:04.947Z,96125.23
2023-04-15T19:29:33.402Z,96125.20
2023-04-15T19:32:01.374Z,96127.18
2023-04-15T19:34:29.246Z,96129.61
2023-04-15T19:36:57.429Z,96130.36
2023-04-15T19:39:26.111Z,96132.94
2023-04-15T19:41:55.471Z,96134.23
2023-04-15T19:44:23.902Z,96135.27
2023-04-15T19:46:53.399Z,96139.86
2023-04-15T19:49:21.576Z,96138.46
2023-04-15T19:51:52.298Z,96141.06
2023-04-15T19:54:20.224Z,96140.21
2023-04-15T19:56:48.360Z,96139.44
2023-04-15T19:59:16.421Z,96137.52
2023-04-15T20:01:44.576Z,96135.59
2023-04-15T20:04:12.829Z,96133.35
2023-04-15T20:06:41.044Z,96134.80
2023-04-15T20:09:11.166Z,96134.91
2023-04-15T20:12:44.937Z,96138.66
2023-04-15T20:14:27.898Z,96139.33
2023-04-15T20:16:56.269Z,96142.67
2023-04-15T20:19:24.252Z,96147.02
2023-04-15T20:21:54.059Z,96146.63
2023-04-15T20:24:24.314Z,96148.06
2023-04-15T20:26:52.349Z,96145.30
2023-04-15T20:29:20.632Z,96144.22
2023-04-15T20:31:50.370Z,96143.14
2023-04-15T20:34:18.503Z,96148.93
2023-04-15T20:36:46.582Z,96152.13
2023-04-15T20:39:14.657Z,96157.25
2023-04-15T20:41:43.018Z,96157.46
2023-04-15T20:44:11.082Z,96156.14
2023-04-15T20:46:40.617Z,96158.73
2023-04-15T20:49:08.679Z,96163.92
2023-04-15T20:51:38.212Z,96168.48
2023-04-15T20:54:06.564Z,96172.45
2023-04-15T20:56:34.558Z,96173.27
2023-04-15T20:59:03.202Z,96176.02
2023-04-15T21:01:31.604Z,96178.63
2023-04-15T21:03:59.698Z,96180.44
2023-04-15T21:06:27.823Z,96182.64
2023-04-15T21:08:55.928Z,96187.80
2023-04-15T21:11:43.051Z,96185.80
2023-04-15T21:14:12.542Z,96187.62
2023-04-15T21:16:41.268Z,96192.34
2023-04-15T21:19:09.812Z,96192.18
2023-04-15T21:21:37.882Z,96191.86
2023-04-15T21:24:07.855Z,96194.14
2023-04-15T21:26:36.401Z,96194.13
2023-04-15T21:29:04.884Z,96190.29
2023-04-15T21:31:33.392Z,96194.77
2023-04-15T21:34:01.723Z,96195.67
2023-04-15T21:36:29.618Z,96198.34
2023-04-15T21:38:57.860Z,96198.63
2023-04-15T21:41:26.354Z,96200.36
2023-04-15T21:43:54.410Z,96203.56
2023-04-15T21:46:25.539Z,96203.30
2023-04-15T21:48:55.062Z,96205.59
2023-04-15T21:51:23.136Z,96205.65
2023-04-15T21:53:52.770Z,96205.31
2023-04-15T21:56:24.400Z,96203.40
2023-04-15T21:58:55.496Z,96206.05
2023-04-15T22:01:24.179Z,96202.51
2023-04-15T22:03:52.767Z,96198.38
2023-04-15T22:06:21.190Z,96201.11
2023-04-15T22:08:57.133Z,96200.84
2023-04-15T22:11:30.572Z,96202.56
2023-04-15T22:13:59.065Z,96197.80
2023-04-15T22:16:27.598Z,96196.33
2023-04-15T22:18:55.837Z,96198.98
2023-04-15T22:21:23.979Z,96204.10
2023-04-15T22:23:52.140Z,96207.72
2023-04-15T22:26:20.526Z,96210.36
2023-04-15T22:28:48.480Z,96216.45
2023-04-15T22:31:16.688Z,96218.27
2023-04-15T22:33:44.560Z,96222.18
2023-04-15T22:36:13.719Z,96226.89
2023-04-15T22:38:41.794Z,96228.00
2023-04-15T22:41:09.873Z,96228.27
2023-04-15T22:43:37.936Z,96229.94
2023-04-15T22:46:06.014Z,96221.20
2023-04-15T22:48:35.112Z,96233.64
2023-04-15T22:51:04.908Z,96235.45
2023-04-15T22:53:32.885Z,96236.21
2023-04-15T22:56:01.191Z,96234.74
2023-04-15T22:58:32.212Z,96234.42
2023-04-15T23:01:00.164Z,96234.02
2023-04-15T23:03:28.380Z,96232.92
2023-04-15T23:05:56.685Z,96232.98
2023-04-15T23:08:24.725Z,96235.16
2023-04-15T23:10:52.674Z,96237.69
2023-04-15T23:13:20.839Z,96236.98
2023-04-15T23:15:48.862Z,96238.09
2023-04-15T23:18:16.844Z,96240.08
2023-04-15T23:20:46.281Z,96239.13
2023-04-15T23:23:14.663Z,96234.15
2023-04-15T23:25:42.518Z,96234.67
2023-04-15T23:28:10.606Z,96239.29
2023-04-15T23:30:38.601Z,96239.89
2023-04-15T23:33:06.652Z,96241.45
2023-04-15T23:35:34.702Z,96244.02
2023-04-15T23:38:02.775Z,96243.87
2023-04-15T23:40:30.857Z,96238.73
2023-04-15T23:42:58.817Z,96238.39
2023-04-15T23:45:27.004Z,96236.94
2023-04-15T23:47:55.069Z,96238.52
2023-04-15T23:50:23.039Z,96237.88
2023-04-15T23:52:51.117Z,96238.85
2023-04-15T23:55:19.283Z,96235.39
2023-04-15T23:57:47.380Z,96232.86
